sensor_id;sensor_type;location;lat;lon;timestamp;P1;durP1;ratioP1;P2;durP2;ratioP2
69569;SDS011;56781;42.292;23.146;2023-06-22T00:00:11;13.85;;;9.13;;
69569;SDS011;56781;42.292;23.146;2023-06-22T00:02:39;13.30;;;9.03;;
69569;SDS011;56781;42.292;23.146;2023-06-22T00:05:06;14.20;;;9.02;;
69569;SDS011;56781;42.292;23.146;2023-06-22T00:07:33;14.23;;;9.10;;
69569;SDS011;56781;42.292;23.146;2023-06-22T00:10:00;14.10;;;9.68;;
69569;SDS011;56781;42.292;23.146;2023-06-22T00:12:28;13.98;;;8.68;;
69569;SDS011;56781;42.292;23.146;2023-06-22T00:14:55;14.13;;;9.10;;
69569;SDS011;56781;42.292;23.146;2023-06-22T00:17:22;13.93;;;8.98;;
69569;SDS011;56781;42.292;23.146;2023-06-22T00:19:49;13.50;;;9.27;;
69569;SDS011;56781;42.292;23.146;2023-06-22T00:22:20;14.93;;;9.40;;
69569;SDS011;56781;42.292;23.146;2023-06-22T00:24:55;16.38;;;9.38;;
69569;SDS011;56781;42.292;23.146;2023-06-22T00:27:23;14.70;;;8.53;;
69569;SDS011;56781;42.292;23.146;2023-06-22T00:29:50;14.13;;;9.07;;
69569;SDS011;56781;42.292;23.146;2023-06-22T00:32:18;13.02;;;9.07;;
69569;SDS011;56781;42.292;23.146;2023-06-22T00:34:45;13.75;;;8.60;;
69569;SDS011;56781;42.292;23.146;2023-06-22T00:37:12;14.13;;;9.30;;
69569;SDS011;56781;42.292;23.146;2023-06-22T00:39:40;14.97;;;9.43;;
69569;SDS011;56781;42.292;23.146;2023-06-22T00:42:07;15.00;;;9.75;;
69569;SDS011;56781;42.292;23.146;2023-06-22T00:44:37;14.88;;;8.95;;
69569;SDS011;56781;42.292;23.146;2023-06-22T00:47:04;14.27;;;9.75;;
69569;SDS011;56781;42.292;23.146;2023-06-22T00:49:33;15.30;;;10.05;;
69569;SDS011;56781;42.292;23.146;2023-06-22T00:52:00;16.93;;;9.37;;
69569;SDS011;56781;42.292;23.146;2023-06-22T00:54:27;15.68;;;10.15;;
69569;SDS011;56781;42.292;23.146;2023-06-22T00:56:55;17.23;;;9.70;;
69569;SDS011;56781;42.292;23.146;2023-06-22T00:59:24;14.23;;;8.93;;
69569;SDS011;56781;42.292;23.146;2023-06-22T01:01:52;16.23;;;9.82;;
69569;SDS011;56781;42.292;23.146;2023-06-22T01:04:21;14.80;;;9.57;;
69569;SDS011;56781;42.292;23.146;2023-06-22T01:06:53;16.05;;;10.02;;
69569;SDS011;56781;42.292;23.146;2023-06-22T01:09:29;17.10;;;10.90;;
69569;SDS011;56781;42.292;23.146;2023-06-22T01:12:04;17.33;;;10.38;;
69569;SDS011;56781;42.292;23.146;2023-06-22T01:14:38;17.08;;;10.75;;
69569;SDS011;56781;42.292;23.146;2023-06-22T01:17:07;14.93;;;10.23;;
69569;SDS011;56781;42.292;23.146;2023-06-22T01:19:46;15.48;;;10.10;;
69569;SDS011;56781;42.292;23.146;2023-06-22T01:22:27;15.00;;;10.10;;
69569;SDS011;56781;42.292;23.146;2023-06-22T01:30:28;15.70;;;10.13;;
69569;SDS011;56781;42.292;23.146;2023-06-22T01:32:57;15.05;;;9.48;;
69569;SDS011;56781;42.292;23.146;2023-06-22T01:35:29;14.82;;;10.15;;
69569;SDS011;56781;42.292;23.146;2023-06-22T01:37:57;17.02;;;10.00;;
69569;SDS011;56781;42.292;23.146;2023-06-22T01:40:25;14.75;;;9.93;;
69569;SDS011;56781;42.292;23.146;2023-06-22T01:42:53;15.87;;;10.13;;
69569;SDS011;56781;42.292;23.146;2023-06-22T01:45:21;14.38;;;9.45;;
69569;SDS011;56781;42.292;23.146;2023-06-22T01:47:48;14.88;;;9.90;;
69569;SDS011;56781;42.292;23.146;2023-06-22T01:50:16;15.10;;;10.13;;
69569;SDS011;56781;42.292;23.146;2023-06-22T01:52:43;15.65;;;10.07;;
69569;SDS011;56781;42.292;23.146;2023-06-22T01:55:10;15.30;;;9.37;;
69569;SDS011;56781;42.292;23.146;2023-06-22T01:57:38;14.00;;;10.40;;
69569;SDS011;56781;42.292;23.146;2023-06-22T02:00:14;15.60;;;10.18;;
69569;SDS011;56781;42.292;23.146;2023-06-22T02:02:59;18.67;;;10.35;;
69569;SDS011;56781;42.292;23.146;2023-06-22T02:05:31;15.85;;;9.73;;
69569;SDS011;56781;42.292;23.146;2023-06-22T02:08:24;16.33;;;9.70;;
69569;SDS011;56781;42.292;23.146;2023-06-22T02:10:55;13.30;;;8.63;;
69569;SDS011;56781;42.292;23.146;2023-06-22T02:13:24;14.10;;;8.82;;
69569;SDS011;56781;42.292;23.146;2023-06-22T02:15:52;15.00;;;8.68;;
69569;SDS011;56781;42.292;23.146;2023-06-22T02:18:20;19.88;;;9.60;;
69569;SDS011;56781;42.292;23.146;2023-06-22T02:20:47;16.13;;;9.73;;
69569;SDS011;56781;42.292;23.146;2023-06-22T02:23:14;14.88;;;9.20;;
69569;SDS011;56781;42.292;23.146;2023-06-22T02:25:41;17.45;;;9.30;;
69569;SDS011;56781;42.292;23.146;2023-06-22T02:28:10;19.08;;;9.45;;
69569;SDS011;56781;42.292;23.146;2023-06-22T02:30:38;19.65;;;9.52;;
69569;SDS011;56781;42.292;23.146;2023-06-22T02:33:05;15.83;;;9.50;;
69569;SDS011;56781;42.292;23.146;2023-06-22T02:35:32;16.73;;;9.63;;
69569;SDS011;56781;42.292;23.146;2023-06-22T02:38:03;16.42;;;9.27;;
69569;SDS011;56781;42.292;23.146;2023-06-22T02:40:31;17.25;;;8.95;;
69569;SDS011;56781;42.292;23.146;2023-06-22T02:42:58;17.88;;;9.90;;
69569;SDS011;56781;42.292;23.146;2023-06-22T02:45:29;17.27;;;9.77;;
69569;SDS011;56781;42.292;23.146;2023-06-22T02:47:56;18.23;;;10.73;;
69569;SDS011;56781;42.292;23.146;2023-06-22T02:50:24;14.88;;;9.98;;
69569;SDS011;56781;42.292;23.146;2023-06-22T02:52:51;20.77;;;10.15;;
69569;SDS011;56781;42.292;23.146;2023-06-22T02:55:19;15.07;;;10.32;;
69569;SDS011;56781;42.292;23.146;2023-06-22T02:57:46;18.13;;;10.43;;
69569;SDS011;56781;42.292;23.146;2023-06-22T03:00:14;16.63;;;9.85;;
69569;SDS011;56781;42.292;23.146;2023-06-22T03:02:45;19.65;;;11.23;;
69569;SDS011;56781;42.292;23.146;2023-06-22T03:05:13;17.13;;;10.88;;
69569;SDS011;56781;42.292;23.146;2023-06-22T03:07:44;16.30;;;10.18;;
69569;SDS011;56781;42.292;23.146;2023-06-22T03:10:13;18.53;;;11.20;;
69569;SDS011;56781;42.292;23.146;2023-06-22T03:12:41;22.50;;;10.52;;
69569;SDS011;56781;42.292;23.146;2023-06-22T03:15:10;22.38;;;11.65;;
69569;SDS011;56781;42.292;23.146;2023-06-22T03:17:38;18.50;;;11.00;;
69569;SDS011;56781;42.292;23.146;2023-06-22T03:20:06;19.25;;;11.32;;
69569;SDS011;56781;42.292;23.146;2023-06-22T03:22:39;20.20;;;11.43;;
69569;SDS011;56781;42.292;23.146;2023-06-22T03:25:07;18.75;;;10.50;;
69569;SDS011;56781;42.292;23.146;2023-06-22T03:27:41;17.48;;;10.90;;
69569;SDS011;56781;42.292;23.146;2023-06-22T03:30:10;18.08;;;10.43;;
69569;SDS011;56781;42.292;23.146;2023-06-22T03:32:38;16.48;;;9.85;;
69569;SDS011;56781;42.292;23.146;2023-06-22T03:35:06;18.43;;;10.33;;
69569;SDS011;56781;42.292;23.146;2023-06-22T03:37:33;17.38;;;11.32;;
69569;SDS011;56781;42.292;23.146;2023-06-22T03:40:00;18.60;;;10.73;;
69569;SDS011;56781;42.292;23.146;2023-06-22T03:42:28;21.10;;;11.27;;
69569;SDS011;56781;42.292;23.146;2023-06-22T03:44:55;18.73;;;11.10;;
69569;SDS011;56781;42.292;23.146;2023-06-22T03:47:22;15.70;;;10.70;;
69569;SDS011;56781;42.292;23.146;2023-06-22T03:49:50;17.02;;;10.88;;
69569;SDS011;56781;42.292;23.146;2023-06-22T03:52:21;17.60;;;10.95;;
69569;SDS011;56781;42.292;23.146;2023-06-22T03:54:49;20.00;;;11.80;;
69569;SDS011;56781;42.292;23.146;2023-06-22T03:57:16;17.35;;;11.68;;
69569;SDS011;56781;42.292;23.146;2023-06-22T03:59:43;19.87;;;11.87;;
69569;SDS011;56781;42.292;23.146;2023-06-22T04:02:10;18.35;;;12.05;;
69569;SDS011;56781;42.292;23.146;2023-06-22T04:04:38;21.55;;;12.35;;
69569;SDS011;56781;42.292;23.146;2023-06-22T04:07:06;19.65;;;11.25;;
69569;SDS011;56781;42.292;23.146;2023-06-22T04:09:33;20.88;;;12.63;;
69569;SDS011;56781;42.292;23.146;2023-06-22T04:12:01;19.13;;;11.20;;
69569;SDS011;56781;42.292;23.146;2023-06-22T04:14:29;18.80;;;11.65;;
69569;SDS011;56781;42.292;23.146;2023-06-22T04:16:57;19.73;;;11.90;;
69569;SDS011;56781;42.292;23.146;2023-06-22T04:19:24;20.70;;;11.52;;
69569;SDS011;56781;42.292;23.146;2023-06-22T04:21:51;17.10;;;11.45;;
69569;SDS011;56781;42.292;23.146;2023-06-22T04:24:19;16.40;;;11.03;;
69569;SDS011;56781;42.292;23.146;2023-06-22T04:26:46;17.83;;;12.00;;
69569;SDS011;56781;42.292;23.146;2023-06-22T04:29:13;18.60;;;12.40;;
69569;SDS011;56781;42.292;23.146;2023-06-22T04:31:41;21.42;;;11.98;;
69569;SDS011;56781;42.292;23.146;2023-06-22T04:34:08;18.83;;;12.30;;
69569;SDS011;56781;42.292;23.146;2023-06-22T04:36:35;18.33;;;11.83;;
69569;SDS011;56781;42.292;23.146;2023-06-22T04:39:05;18.23;;;10.95;;
69569;SDS011;56781;42.292;23.146;2023-06-22T04:41:33;18.67;;;12.05;;
69569;SDS011;56781;42.292;23.146;2023-06-22T04:44:11;19.08;;;11.82;;
69569;SDS011;56781;42.292;23.146;2023-06-22T04:46:39;19.73;;;11.73;;
69569;SDS011;56781;42.292;23.146;2023-06-22T04:49:07;18.87;;;11.13;;
69569;SDS011;56781;42.292;23.146;2023-06-22T04:51:37;17.75;;;11.48;;
69569;SDS011;56781;42.292;23.146;2023-06-22T04:54:08;19.08;;;11.85;;
69569;SDS011;56781;42.292;23.146;2023-06-22T04:56:36;20.63;;;12.32;;
69569;SDS011;56781;42.292;23.146;2023-06-22T04:59:03;19.02;;;12.15;;
69569;SDS011;56781;42.292;23.146;2023-06-22T05:01:30;16.63;;;11.60;;
69569;SDS011;56781;42.292;23.146;2023-06-22T05:03:58;19.38;;;11.30;;
69569;SDS011;56781;42.292;23.146;2023-06-22T05:06:27;16.85;;;11.27;;
69569;SDS011;56781;42.292;23.146;2023-06-22T05:08:55;16.48;;;11.00;;
69569;SDS011;56781;42.292;23.146;2023-06-22T05:11:26;16.27;;;11.02;;
69569;SDS011;56781;42.292;23.146;2023-06-22T05:13:54;17.47;;;11.27;;
69569;SDS011;56781;42.292;23.146;2023-06-22T05:16:22;18.02;;;11.48;;
69569;SDS011;56781;42.292;23.146;2023-06-22T05:18:53;17.27;;;11.50;;
69569;SDS011;56781;42.292;23.146;2023-06-22T05:21:21;15.18;;;10.68;;
69569;SDS011;56781;42.292;23.146;2023-06-22T05:23:51;15.73;;;11.35;;
69569;SDS011;56781;42.292;23.146;2023-06-22T05:26:18;15.07;;;10.70;;
69569;SDS011;56781;42.292;23.146;2023-06-22T05:28:46;16.38;;;10.80;;
69569;SDS011;56781;42.292;23.146;2023-06-22T05:31:15;16.40;;;11.40;;
69569;SDS011;56781;42.292;23.146;2023-06-22T05:33:43;15.75;;;11.20;;
69569;SDS011;56781;42.292;23.146;2023-06-22T05:36:11;15.38;;;11.13;;
69569;SDS011;56781;42.292;23.146;2023-06-22T05:38:39;14.43;;;10.60;;
69569;SDS011;56781;42.292;23.146;2023-06-22T05:41:06;15.43;;;11.20;;
69569;SDS011;56781;42.292;23.146;2023-06-22T05:43:34;14.85;;;10.77;;
69569;SDS011;56781;42.292;23.146;2023-06-22T05:46:01;14.70;;;11.23;;
69569;SDS011;56781;42.292;23.146;2023-06-22T05:48:29;14.82;;;10.55;;
69569;SDS011;56781;42.292;23.146;2023-06-22T05:50:56;13.27;;;10.53;;
69569;SDS011;56781;42.292;23.146;2023-06-22T05:53:23;14.73;;;10.73;;
69569;SDS011;56781;42.292;23.146;2023-06-22T05:55:51;14.23;;;10.90;;
69569;SDS011;56781;42.292;23.146;2023-06-22T05:58:18;18.90;;;10.23;;
69569;SDS011;56781;42.292;23.146;2023-06-22T06:00:45;16.38;;;10.65;;
69569;SDS011;56781;42.292;23.146;2023-06-22T06:03:13;14.60;;;10.23;;
69569;SDS011;56781;42.292;23.146;2023-06-22T06:05:43;13.05;;;10.10;;
69569;SDS011;56781;42.292;23.146;2023-06-22T06:08:12;15.63;;;10.70;;
69569;SDS011;56781;42.292;23.146;2023-06-22T06:10:39;14.60;;;10.73;;
69569;SDS011;56781;42.292;23.146;2023-06-22T06:13:06;14.68;;;10.48;;
69569;SDS011;56781;42.292;23.146;2023-06-22T06:15:33;13.23;;;10.03;;
69569;SDS011;56781;42.292;23.146;2023-06-22T06:18:01;14.27;;;10.52;;
69569;SDS011;56781;42.292;23.146;2023-06-22T06:20:31;14.27;;;10.65;;
69569;SDS011;56781;42.292;23.146;2023-06-22T06:22:59;13.00;;;10.30;;
69569;SDS011;56781;42.292;23.146;2023-06-22T06:25:26;13.07;;;10.00;;
69569;SDS011;56781;42.292;23.146;2023-06-22T06:27:53;12.47;;;9.77;;
69569;SDS011;56781;42.292;23.146;2023-06-22T06:30:21;11.95;;;9.75;;
69569;SDS011;56781;42.292;23.146;2023-06-22T06:32:49;13.98;;;9.90;;
69569;SDS011;56781;42.292;23.146;2023-06-22T06:35:17;13.02;;;9.13;;
69569;SDS011;56781;42.292;23.146;2023-06-22T06:37:45;13.27;;;9.15;;
69569;SDS011;56781;42.292;23.146;2023-06-22T06:40:13;14.97;;;8.83;;
69569;SDS011;56781;42.292;23.146;2023-06-22T06:42:42;49.67;;;12.40;;
69569;SDS011;56781;42.292;23.146;2023-06-22T06:45:12;31.42;;;9.73;;
69569;SDS011;56781;42.292;23.146;2023-06-22T06:47:41;22.30;;;9.25;;
69569;SDS011;56781;42.292;23.146;2023-06-22T06:50:09;20.58;;;10.43;;
69569;SDS011;56781;42.292;23.146;2023-06-22T06:52:37;17.37;;;9.90;;
69569;SDS011;56781;42.292;23.146;2023-06-22T06:55:04;19.45;;;9.50;;
69569;SDS011;56781;42.292;23.146;2023-06-22T06:57:35;25.33;;;9.98;;
69569;SDS011;56781;42.292;23.146;2023-06-22T07:00:06;23.50;;;9.70;;
69569;SDS011;56781;42.292;23.146;2023-06-22T07:02:39;22.70;;;11.18;;
69569;SDS011;56781;42.292;23.146;2023-06-22T07:05:08;23.50;;;10.30;;
69569;SDS011;56781;42.292;23.146;2023-06-22T07:07:36;20.83;;;9.80;;
69569;SDS011;56781;42.292;23.146;2023-06-22T07:10:04;18.02;;;10.02;;
69569;SDS011;56781;42.292;23.146;2023-06-22T07:12:32;16.27;;;9.57;;
69569;SDS011;56781;42.292;23.146;2023-06-22T07:15:03;24.98;;;10.50;;
69569;SDS011;56781;42.292;23.146;2023-06-22T07:17:35;22.60;;;10.13;;
69569;SDS011;56781;42.292;23.146;2023-06-22T07:20:03;26.85;;;10.60;;
69569;SDS011;56781;42.292;23.146;2023-06-22T07:22:40;23.67;;;11.02;;
69569;SDS011;56781;42.292;23.146;2023-06-22T07:25:09;20.88;;;10.70;;
69569;SDS011;56781;42.292;23.146;2023-06-22T07:27:37;20.50;;;9.88;;
69569;SDS011;56781;42.292;23.146;2023-06-22T07:30:12;15.33;;;9.93;;
69569;SDS011;56781;42.292;23.146;2023-06-22T07:32:39;18.15;;;9.90;;
69569;SDS011;56781;42.292;23.146;2023-06-22T07:35:06;23.00;;;10.57;;
69569;SDS011;56781;42.292;23.146;2023-06-22T07:37:34;28.50;;;10.80;;
69569;SDS011;56781;42.292;23.146;2023-06-22T07:40:01;16.50;;;10.27;;
69569;SDS011;56781;42.292;23.146;2023-06-22T07:42:32;18.03;;;9.70;;
69569;SDS011;56781;42.292;23.146;2023-06-22T07:45:00;16.98;;;10.25;;
69569;SDS011;56781;42.292;23.146;2023-06-22T07:47:27;18.20;;;10.30;;
69569;SDS011;56781;42.292;23.146;2023-06-22T07:49:55;20.08;;;10.45;;
69569;SDS011;56781;42.292;23.146;2023-06-22T07:52:24;13.00;;;9.85;;
69569;SDS011;56781;42.292;23.146;2023-06-22T07:54:52;16.47;;;10.20;;
69569;SDS011;56781;42.292;23.146;2023-06-22T07:57:19;13.02;;;9.63;;
69569;SDS011;56781;42.292;23.146;2023-06-22T07:59:47;16.98;;;9.90;;
69569;SDS011;56781;42.292;23.146;2023-06-22T08:02:14;12.68;;;9.35;;
69569;SDS011;56781;42.292;23.146;2023-06-22T08:04:41;13.60;;;10.48;;
69569;SDS011;56781;42.292;23.146;2023-06-22T08:07:08;15.13;;;9.67;;
69569;SDS011;56781;42.292;23.146;2023-06-22T08:09:36;12.05;;;9.90;;
69569;SDS011;56781;42.292;23.146;2023-06-22T08:12:03;13.98;;;10.10;;
69569;SDS011;56781;42.292;23.146;2023-06-22T08:14:31;16.15;;;9.52;;
69569;SDS011;56781;42.292;23.146;2023-06-22T08:16:58;13.57;;;9.70;;
69569;SDS011;56781;42.292;23.146;2023-06-22T08:19:25;13.67;;;10.33;;
69569;SDS011;56781;42.292;23.146;2023-06-22T08:21:52;10.93;;;9.45;;
69569;SDS011;56781;42.292;23.146;2023-06-22T08:24:19;14.10;;;9.85;;
69569;SDS011;56781;42.292;23.146;2023-06-22T08:26:46;16.55;;;10.65;;
69569;SDS011;56781;42.292;23.146;2023-06-22T08:29:13;15.77;;;9.77;;
69569;SDS011;56781;42.292;23.146;2023-06-22T08:31:41;12.43;;;10.00;;
69569;SDS011;56781;42.292;23.146;2023-06-22T08:34:08;12.82;;;10.70;;
69569;SDS011;56781;42.292;23.146;2023-06-22T08:36:35;13.52;;;10.50;;
69569;SDS011;56781;42.292;23.146;2023-06-22T08:39:08;14.68;;;10.55;;
69569;SDS011;56781;42.292;23.146;2023-06-22T08:41:35;11.13;;;9.43;;
69569;SDS011;56781;42.292;23.146;2023-06-22T08:44:02;12.53;;;9.53;;
69569;SDS011;56781;42.292;23.146;2023-06-22T08:46:30;12.98;;;9.93;;
69569;SDS011;56781;42.292;23.146;2023-06-22T08:48:59;15.38;;;10.10;;
69569;SDS011;56781;42.292;23.146;2023-06-22T08:51:27;14.60;;;10.60;;
69569;SDS011;56781;42.292;23.146;2023-06-22T08:53:55;14.50;;;10.40;;
69569;SDS011;56781;42.292;23.146;2023-06-22T08:56:22;13.13;;;10.83;;
69569;SDS011;56781;42.292;23.146;2023-06-22T08:58:49;15.45;;;10.55;;
69569;SDS011;56781;42.292;23.146;2023-06-22T09:01:16;18.33;;;11.40;;
69569;SDS011;56781;42.292;23.146;2023-06-22T09:03:43;22.38;;;11.00;;
69569;SDS011;56781;42.292;23.146;2023-06-22T09:06:10;20.17;;;11.38;;
69569;SDS011;56781;42.292;23.146;2023-06-22T09:08:37;12.47;;;9.40;;
69569;SDS011;56781;42.292;23.146;2023-06-22T09:11:04;11.82;;;8.77;;
69569;SDS011;56781;42.292;23.146;2023-06-22T09:13:32;11.60;;;8.43;;
69569;SDS011;56781;42.292;23.146;2023-06-22T09:15:59;11.40;;;8.40;;
69569;SDS011;56781;42.292;23.146;2023-06-22T09:18:26;9.73;;;8.05;;
69569;SDS011;56781;42.292;23.146;2023-06-22T09:20:53;8.80;;;7.43;;
69569;SDS011;56781;42.292;23.146;2023-06-22T09:23:20;9.30;;;7.82;;
69569;SDS011;56781;42.292;23.146;2023-06-22T09:25:47;10.55;;;7.80;;
69569;SDS011;56781;42.292;23.146;2023-06-22T09:28:15;11.27;;;8.13;;
69569;SDS011;56781;42.292;23.146;2023-06-22T09:30:45;11.05;;;7.90;;
69569;SDS011;56781;42.292;23.146;2023-06-22T09:33:12;10.03;;;8.20;;
69569;SDS011;56781;42.292;23.146;2023-06-22T09:35:39;9.77;;;7.97;;
69569;SDS011;56781;42.292;23.146;2023-06-22T09:38:06;12.00;;;8.32;;
69569;SDS011;56781;42.292;23.146;2023-06-22T09:40:33;9.32;;;7.95;;
69569;SDS011;56781;42.292;23.146;2023-06-22T09:43:06;10.73;;;8.48;;
69569;SDS011;56781;42.292;23.146;2023-06-22T09:45:33;9.83;;;7.87;;
69569;SDS011;56781;42.292;23.146;2023-06-22T09:48:00;9.18;;;8.02;;
69569;SDS011;56781;42.292;23.146;2023-06-22T09:50:28;10.48;;;8.27;;
69569;SDS011;56781;42.292;23.146;2023-06-22T09:52:55;8.55;;;7.43;;
69569;SDS011;56781;42.292;23.146;2023-06-22T09:55:22;11.23;;;8.10;;
69569;SDS011;56781;42.292;23.146;2023-06-22T09:57:49;10.03;;;7.80;;
69569;SDS011;56781;42.292;23.146;2023-06-22T10:00:16;10.23;;;8.55;;
69569;SDS011;56781;42.292;23.146;2023-06-22T10:02:45;10.52;;;8.10;;
69569;SDS011;56781;42.292;23.146;2023-06-22T10:05:13;9.75;;;8.52;;
69569;SDS011;56781;42.292;23.146;2023-06-22T10:07:40;11.07;;;8.68;;
69569;SDS011;56781;42.292;23.146;2023-06-22T10:10:11;11.67;;;8.60;;
69569;SDS011;56781;42.292;23.146;2023-06-22T10:12:42;10.02;;;8.50;;
69569;SDS011;56781;42.292;23.146;2023-06-22T10:15:11;11.02;;;8.75;;
69569;SDS011;56781;42.292;23.146;2023-06-22T10:17:38;10.65;;;8.50;;
69569;SDS011;56781;42.292;23.146;2023-06-22T10:20:08;10.30;;;8.85;;
69569;SDS011;56781;42.292;23.146;2023-06-22T10:22:43;9.57;;;8.00;;
69569;SDS011;56781;42.292;23.146;2023-06-22T10:25:12;9.63;;;8.52;;
69569;SDS011;56781;42.292;23.146;2023-06-22T10:27:40;11.82;;;8.73;;
69569;SDS011;56781;42.292;23.146;2023-06-22T10:30:07;11.60;;;9.10;;
69569;SDS011;56781;42.292;23.146;2023-06-22T10:32:37;10.93;;;9.00;;
69569;SDS011;56781;42.292;23.146;2023-06-22T10:35:05;11.47;;;8.87;;
69569;SDS011;56781;42.292;23.146;2023-06-22T10:37:32;10.57;;;8.55;;
69569;SDS011;56781;42.292;23.146;2023-06-22T10:39:59;12.55;;;9.25;;
69569;SDS011;56781;42.292;23.146;2023-06-22T10:42:26;11.23;;;9.15;;
69569;SDS011;56781;42.292;23.146;2023-06-22T10:44:53;11.05;;;9.18;;
69569;SDS011;56781;42.292;23.146;2023-06-22T10:47:20;11.07;;;8.83;;
69569;SDS011;56781;42.292;23.146;2023-06-22T10:49:47;11.52;;;9.70;;
69569;SDS011;56781;42.292;23.146;2023-06-22T10:52:14;11.10;;;9.52;;
69569;SDS011;56781;42.292;23.146;2023-06-22T10:54:41;11.82;;;9.48;;
69569;SDS011;56781;42.292;23.146;2023-06-22T10:57:08;11.93;;;9.90;;
69569;SDS011;56781;42.292;23.146;2023-06-22T10:59:35;11.57;;;9.27;;
69569;SDS011;56781;42.292;23.146;2023-06-22T11:02:02;11.70;;;10.05;;
69569;SDS011;56781;42.292;23.146;2023-06-22T11:04:30;14.70;;;10.38;;
69569;SDS011;56781;42.292;23.146;2023-06-22T11:06:57;12.98;;;10.13;;
69569;SDS011;56781;42.292;23.146;2023-06-22T11:09:24;13.40;;;10.30;;
69569;SDS011;56781;42.292;23.146;2023-06-22T11:11:55;15.93;;;10.03;;
69569;SDS011;56781;42.292;23.146;2023-06-22T11:14:22;11.95;;;10.70;;
69569;SDS011;56781;42.292;23.146;2023-06-22T11:16:50;13.75;;;11.02;;
69569;SDS011;56781;42.292;23.146;2023-06-22T11:19:17;11.70;;;10.43;;
69569;SDS011;56781;42.292;23.146;2023-06-22T11:21:45;13.70;;;10.10;;
69569;SDS011;56781;42.292;23.146;2023-06-22T11:24:12;12.53;;;10.07;;
69569;SDS011;56781;42.292;23.146;2023-06-22T11:26:39;13.18;;;10.25;;
69569;SDS011;56781;42.292;23.146;2023-06-22T11:29:06;13.18;;;11.02;;
69569;SDS011;56781;42.292;23.146;2023-06-22T11:31:39;12.48;;;10.73;;
69569;SDS011;56781;42.292;23.146;2023-06-22T11:34:06;12.30;;;11.00;;
69569;SDS011;56781;42.292;23.146;2023-06-22T11:36:33;12.87;;;10.37;;
69569;SDS011;56781;42.292;23.146;2023-06-22T11:39:02;14.68;;;10.40;;
69569;SDS011;56781;42.292;23.146;2023-06-22T11:41:29;13.43;;;11.13;;
69569;SDS011;56781;42.292;23.146;2023-06-22T11:43:56;13.57;;;10.50;;
69569;SDS011;56781;42.292;23.146;2023-06-22T11:46:23;13.05;;;11.32;;
69569;SDS011;56781;42.292;23.146;2023-06-22T11:48:50;12.77;;;10.70;;
69569;SDS011;56781;42.292;23.146;2023-06-22T11:51:17;13.90;;;10.43;;
69569;SDS011;56781;42.292;23.146;2023-06-22T11:53:44;15.13;;;10.70;;
69569;SDS011;56781;42.292;23.146;2023-06-22T11:56:11;11.80;;;9.95;;
69569;SDS011;56781;42.292;23.146;2023-06-22T11:58:38;11.77;;;10.57;;
69569;SDS011;56781;42.292;23.146;2023-06-22T12:01:05;13.47;;;10.87;;
69569;SDS011;56781;42.292;23.146;2023-06-22T12:03:32;13.55;;;10.38;;
69569;SDS011;56781;42.292;23.146;2023-06-22T12:05:59;14.85;;;10.95;;
69569;SDS011;56781;42.292;23.146;2023-06-22T12:08:27;11.70;;;10.25;;
69569;SDS011;56781;42.292;23.146;2023-06-22T12:10:54;14.07;;;11.27;;
69569;SDS011;56781;42.292;23.146;2023-06-22T12:13:21;13.93;;;10.77;;
69569;SDS011;56781;42.292;23.146;2023-06-22T12:15:48;14.15;;;10.80;;
69569;SDS011;56781;42.292;23.146;2023-06-22T12:18:15;13.30;;;10.85;;
69569;SDS011;56781;42.292;23.146;2023-06-22T12:20:42;13.13;;;10.63;;
69569;SDS011;56781;42.292;23.146;2023-06-22T12:23:09;12.57;;;10.68;;
69569;SDS011;56781;42.292;23.146;2023-06-22T12:25:36;11.90;;;10.10;;
69569;SDS011;56781;42.292;23.146;2023-06-22T12:28:03;12.60;;;10.60;;
69569;SDS011;56781;42.292;23.146;2023-06-22T12:30:32;13.27;;;11.38;;
69569;SDS011;56781;42.292;23.146;2023-06-22T12:32:59;12.43;;;11.13;;
69569;SDS011;56781;42.292;23.146;2023-06-22T12:35:27;13.73;;;10.68;;
69569;SDS011;56781;42.292;23.146;2023-06-22T12:37:54;12.90;;;11.03;;
69569;SDS011;56781;42.292;23.146;2023-06-22T12:40:21;13.27;;;10.43;;
69569;SDS011;56781;42.292;23.146;2023-06-22T12:42:48;12.40;;;10.00;;
69569;SDS011;56781;42.292;23.146;2023-06-22T12:45:16;11.73;;;9.80;;
69569;SDS011;56781;42.292;23.146;2023-06-22T12:47:43;12.30;;;10.02;;
69569;SDS011;56781;42.292;23.146;2023-06-22T12:50:10;14.80;;;10.40;;
69569;SDS011;56781;42.292;23.146;2023-06-22T12:52:37;13.43;;;10.57;;
69569;SDS011;56781;42.292;23.146;2023-06-22T12:55:07;11.82;;;9.88;;
69569;SDS011;56781;42.292;23.146;2023-06-22T12:57:35;13.98;;;9.80;;
69569;SDS011;56781;42.292;23.146;2023-06-22T13:00:02;11.95;;;10.00;;
69569;SDS011;56781;42.292;23.146;2023-06-22T13:02:31;12.77;;;10.40;;
69569;SDS011;56781;42.292;23.146;2023-06-22T13:04:58;14.48;;;8.10;;
69569;SDS011;56781;42.292;23.146;2023-06-22T13:07:25;13.02;;;7.60;;
69569;SDS011;56781;42.292;23.146;2023-06-22T13:09:52;24.45;;;7.38;;
69569;SDS011;56781;42.292;23.146;2023-06-22T13:12:19;21.73;;;7.82;;
69569;SDS011;56781;42.292;23.146;2023-06-22T13:14:47;12.80;;;7.47;;
69569;SDS011;56781;42.292;23.146;2023-06-22T13:17:14;12.20;;;7.07;;
69569;SDS011;56781;42.292;23.146;2023-06-22T13:19:42;15.10;;;6.65;;
69569;SDS011;56781;42.292;23.146;2023-06-22T13:22:26;16.10;;;6.78;;
69569;SDS011;56781;42.292;23.146;2023-06-22T13:24:57;11.15;;;6.57;;
69569;SDS011;56781;42.292;23.146;2023-06-22T13:27:26;11.03;;;6.80;;
69569;SDS011;56781;42.292;23.146;2023-06-22T13:29:53;11.40;;;7.13;;
69569;SDS011;56781;42.292;23.146;2023-06-22T13:32:20;11.82;;;7.00;;
69569;SDS011;56781;42.292;23.146;2023-06-22T13:34:47;11.88;;;7.03;;
69569;SDS011;56781;42.292;23.146;2023-06-22T13:37:14;13.98;;;7.50;;
69569;SDS011;56781;42.292;23.146;2023-06-22T13:39:42;11.83;;;7.27;;
69569;SDS011;56781;42.292;23.146;2023-06-22T13:42:09;10.07;;;7.13;;
69569;SDS011;56781;42.292;23.146;2023-06-22T13:44:36;23.83;;;7.90;;
69569;SDS011;56781;42.292;23.146;2023-06-22T13:47:03;10.15;;;7.70;;
69569;SDS011;56781;42.292;23.146;2023-06-22T13:49:31;14.77;;;7.85;;
69569;SDS011;56781;42.292;23.146;2023-06-22T13:51:58;14.23;;;7.87;;
69569;SDS011;56781;42.292;23.146;2023-06-22T13:54:26;15.90;;;7.95;;
69569;SDS011;56781;42.292;23.146;2023-06-22T13:56:56;12.02;;;7.88;;
69569;SDS011;56781;42.292;23.146;2023-06-22T13:59:23;13.30;;;8.40;;
69569;SDS011;56781;42.292;23.146;2023-06-22T14:01:53;11.57;;;7.30;;
69569;SDS011;56781;42.292;23.146;2023-06-22T14:04:22;10.60;;;6.63;;
69569;SDS011;56781;42.292;23.146;2023-06-22T14:06:50;10.98;;;6.90;;
69569;SDS011;56781;42.292;23.146;2023-06-22T14:09:22;12.00;;;6.47;;
69569;SDS011;56781;42.292;23.146;2023-06-22T14:11:49;11.18;;;6.85;;
69569;SDS011;56781;42.292;23.146;2023-06-22T14:14:16;11.27;;;6.85;;
69569;SDS011;56781;42.292;23.146;2023-06-22T14:16:43;14.07;;;6.87;;
69569;SDS011;56781;42.292;23.146;2023-06-22T14:19:10;9.90;;;6.70;;
69569;SDS011;56781;42.292;23.146;2023-06-22T14:21:37;12.20;;;6.88;;
69569;SDS011;56781;42.292;23.146;2023-06-22T14:24:05;13.00;;;7.15;;
69569;SDS011;56781;42.292;23.146;2023-06-22T14:26:32;11.18;;;7.43;;